LJLJ Airport Information

Runway Information
Runway 13 Length 10827 ft width 148 ft
Elevation 1273 ft Threshold 0 ft Heading 126
Runway 31 Length 10827 ft Width 148 ft
Elevation 1191 ft Threshold 0 ft Heading 306
Airport Frequencies
Type A/D Name APP Frequency 135.275 MHZ
Type ATIS Name also on VO Frequency 128.175 MHZ
Type GND Name Frequency 121.625 MHZ
Type HANDLING & Name Frequency 131.4 MHZ
Type TWR Name TWR Frequency 118 MHZ
Airport Navaids
Type VOR-DME Name Dolsko Frequency 112700 KHZ
Type NDB Name Dolsko Frequency 328 KHZ
Type NDB Name Ljubljana Frequency 296 KHZ
Airport Weather Information & NOTAM
ADDS - METARS form results

(0527 UTC 23 May 2022)
Data provider http://aviationweather.gov/metar/data/
 
METAR text: LJLJ 230500Z 09002KT 9999 FEW003 BKN033 17/16 Q1012 NOSIG
Conditions at: LJLJ (LJUBLJANA/BRNIK , SI) observed 0500 UTC 23 May 2022
Temperature: 17.0°C (63°F)
Dewpoint: 16.0°C (61°F) [RH = 94%]
Pressure (altimeter): 29.88 inches Hg (1012.0 mb)
Winds: from the E (90 degrees) at 2 MPH (2 knots; 1.0 m/s)
Visibility: 6 or more miles (10+ km)
Ceiling: 3300 feet AGL
Clouds: few clouds at 300 feet AGL
broken clouds at 3300 feet AGL
Weather: no significant weather observed at this time

METAR text: LJLJ 230430Z VRB02KT 9999 FEW003 BKN033 17/16 Q1012 NOSIG
Conditions at: LJLJ (LJUBLJANA/BRNIK , SI) observed 0430 UTC 23 May 2022
Temperature: 17.0°C (63°F)
Dewpoint: 16.0°C (61°F) [RH = 94%]
Pressure (altimeter): 29.88 inches Hg (1012.0 mb)
Winds: variable direction winds at 2 MPH (2 knots; 1.0 m/s)
Visibility: 6 or more miles (10+ km)
Ceiling: 3300 feet AGL
Clouds: few clouds at 300 feet AGL
broken clouds at 3300 feet AGL
Weather: no significant weather observed at this time

Forecast for: LJLJ (LJUBLJANA/BRNIK , SI)
Text: TAF LJLJ 230500Z 2306/2406 10005KT 9999 BKN033
Forecast period: 0600 UTC 23 May 2022 to 0600 UTC 24 May 2022
Forecast type: FROM: standard forecast or significant change
Winds: from the E (100 degrees) at 6 MPH (5 knots; 2.6 m/s)
Visibility: 6 or more miles (10+ km)
Ceiling: 3300 feet AGL
Clouds: broken clouds at 3300 feet AGL
Weather: no significant weather forecast for this period
Text: PROB30
Forecast period: 0900 UTC 23 May 2022 to 0000 UTC 24 May 2022
Forecast type: TEMPORARY: The following changes expected for less than half the time period
Visibility: missing
Ceiling: 4000 feet AGL
Clouds: scattered clouds at 3500 feet AGL
broken clouds at 4000 feet AGL
Weather: SHRA  (rain showers)